Time,TemperatureF,DewpointF,PressureIn,WindDirection,WindDirectionDegrees,WindSpeedMPH,WindSpeedGustMPH,Humidity,HourlyPrecipIn,Conditions,Clouds,dailyrainin,SoftwareType,DateUTC
2013-03-27 02:30:00,27.0,23.4,30.37,SSE,157,0.0,0.0,86,0.00,,,-99.99,Weather View 32 v60,2013-03-27 07:30:00,
2013-03-27 02:45:00,27.0,23.6,30.38,SW,225,0.0,0.0,87,0.00,,,-99.99,Weather View 32 v60,2013-03-27 07:45:00,
2013-03-27 03:00:00,27.0,23.6,30.37,SSE,157,0.0,0.0,87,0.00,,,-99.99,Weather View 32 v60,2013-03-27 08:00:00,
2013-03-27 03:15:00,27.0,23.6,30.37,SE,135,0.0,0.0,87,0.00,,,-99.99,Weather View 32 v60,2013-03-27 08:15:00,
2013-03-27 03:25:00,27.0,23.6,30.37,SE,135,0.0,0.0,87,0.00,,,-99.99,Weather View 32 v60,2013-03-27 08:25:00,
2013-03-27 03:30:00,27.0,23.6,30.37,SSE,157,0.0,0.0,87,0.00,,,-99.99,Weather View 32 v60,2013-03-27 08:30:00,
2013-03-27 03:45:00,27.0,23.4,30.37,ESE,112,0.0,0.0,86,0.00,,,-99.99,Weather View 32 v60,2013-03-27 08:45:00,
2013-03-27 04:00:00,27.0,23.4,30.36,ENE,67,0.0,0.0,86,0.00,,,-99.99,Weather View 32 v60,2013-03-27 09:00:00,
2013-03-27 04:15:00,26.0,23.2,30.36,SSE,157,0.0,0.0,89,0.00,,,-99.99,Weather View 32 v60,2013-03-27 09:15:00,
2013-03-27 04:25:00,26.0,23.2,30.36,SSE,157,0.0,0.0,89,0.00,,,-99.99,Weather View 32 v60,2013-03-27 09:25:00,
2013-03-27 04:45:00,25.0,22.5,30.36,East,90,1.0,2.0,90,0.00,,,-99.99,Weather View 32 v60,2013-03-27 09:45:00,
2013-03-27 05:00:00,25.0,22.2,30.36,ESE,112,0.0,2.0,89,0.00,,,-99.99,Weather View 32 v60,2013-03-27 10:00:00,
2013-03-27 05:15:00,25.0,22.7,30.37,SE,135,0.0,2.0,91,0.00,,,-99.99,Weather View 32 v60,2013-03-27 10:15:00,
2013-03-27 05:26:00,25.0,22.7,30.37,SE,135,0.0,2.0,91,0.00,,,-99.99,Weather View 32 v60,2013-03-27 10:26:00,
2013-03-27 05:45:00,23.0,21.0,30.37,ENE,67,0.0,2.0,92,0.00,,,-99.99,Weather View 32 v60,2013-03-27 10:45:00,
2013-03-27 06:00:00,22.0,20.0,30.38,ENE,67,0.0,1.0,92,0.00,,,-99.99,Weather View 32 v60,2013-03-27 11:00:00,
2013-03-27 06:15:00,23.0,21.0,30.38,East,90,0.0,1.0,92,0.00,,,-99.99,Weather View 32 v60,2013-03-27 11:15:00,
2013-03-27 06:27:00,23.0,21.0,30.38,East,90,0.0,1.0,92,0.00,,,-99.99,Weather View 32 v60,2013-03-27 11:27:00,
2013-03-27 06:45:00,23.0,21.0,30.38,ESE,112,0.0,1.0,92,0.00,,,-99.99,Weather View 32 v60,2013-03-27 11:45:00,
2013-03-27 07:00:00,23.0,21.0,30.38,ESE,112,0.0,1.0,92,0.00,,,-99.99,Weather View 32 v60,2013-03-27 12:00:00,
2013-03-27 07:15:00,23.0,21.0,30.38,WSW,247,0.0,1.0,92,0.00,,,-99.99,Weather View 32 v60,2013-03-27 12:15:00,
2013-03-27 07:27:00,23.0,21.0,30.38,WSW,247,0.0,1.0,92,0.00,,,-99.99,Weather View 32 v60,2013-03-27 12:27:00,
2013-03-27 07:45:00,25.0,22.7,30.38,South,180,0.0,1.0,91,0.00,,,-99.99,Weather View 32 v60,2013-03-27 12:45:00,
2013-03-27 08:00:00,27.0,24.5,30.38,SSE,157,0.0,1.0,90,0.00,,,-99.99,Weather View 32 v60,2013-03-27 13:00:00,
2013-03-27 08:15:00,28.0,24.6,30.38,ESE,112,0.0,1.0,87,0.00,,,-99.99,Weather View 32 v60,2013-03-27 13:15:00,
2013-03-27 08:28:00,28.0,24.6,30.38,ESE,112,0.0,1.0,87,0.00,,,-99.99,Weather View 32 v60,2013-03-27 13:28:00,
2013-03-27 08:45:00,32.0,26.5,30.38,SSW,202,0.0,1.0,80,0.00,,,-99.99,Weather View 32 v60,2013-03-27 13:45:00,
2013-03-27 09:00:00,34.0,26.6,30.37,SSW,202,2.0,3.0,74,0.00,,,-99.99,Weather View 32 v60,2013-03-27 14:00:00,
2013-03-27 09:15:00,35.0,25.9,30.36,SSE,157,2.0,6.0,69,0.00,,,-99.99,Weather View 32 v60,2013-03-27 14:15:00,
2013-03-27 09:28:00,35.0,25.9,30.36,SSE,157,2.0,6.0,69,0.00,,,-99.99,Weather View 32 v60,2013-03-27 14:28:00,
2013-03-27 09:45:00,37.0,25.9,30.36,SSW,202,0.0,8.0,64,0.00,,,-99.99,Weather View 32 v60,2013-03-27 14:45:00,
2013-03-27 10:00:00,38.0,25.7,30.36,SSW,202,0.0,9.0,61,0.00,,,-99.99,Weather View 32 v60,2013-03-27 15:00:00,
2013-03-27 10:15:00,39.0,26.3,30.35,SW,225,6.0,10.0,60,0.00,,,-99.99,Weather View 32 v60,2013-03-27 15:15:00,
2013-03-27 10:29:00,39.0,26.3,30.35,SW,225,6.0,10.0,60,0.00,,,-99.99,Weather View 32 v60,2013-03-27 15:29:00,
2013-03-27 10:45:00,40.0,26.8,30.35,SW,225,1.0,10.0,59,0.00,,,-99.99,Weather View 32 v60,2013-03-27 15:45:00,
2013-03-27 11:00:00,40.0,26.8,30.34,South,180,0.0,13.0,59,0.00,,,-99.99,Weather View 32 v60,2013-03-27 16:00:00,
2013-03-27 11:15:00,41.0,26.9,30.34,WSW,247,0.0,13.0,57,0.00,,,-99.99,Weather View 32 v60,2013-03-27 16:15:00,
2013-03-27 11:29:00,41.0,26.9,30.34,WSW,247,0.0,13.0,57,0.00,,,-99.99,Weather View 32 v60,2013-03-27 16:29:00,
2013-03-27 11:45:00,43.0,27.0,30.33,South,180,1.0,15.0,53,0.00,,,-99.99,Weather View 32 v60,2013-03-27 16:45:00,
2013-03-27 12:00:00,43.0,27.5,30.32,East,90,0.0,15.0,54,0.00,,,-99.99,Weather View 32 v60,2013-03-27 17:00:00,
2013-03-27 12:15:00,44.0,27.5,30.32,SE,135,2.0,15.0,52,0.00,,,-99.99,Weather View 32 v60,2013-03-27 17:15:00,
2013-03-27 12:30:00,44.0,27.5,30.32,SE,135,2.0,15.0,52,0.00,,,-99.99,Weather View 32 v60,2013-03-27 17:30:00,
2013-03-27 12:45:00,47.0,27.8,30.30,ESE,112,0.0,16.0,47,0.00,,,-99.99,Weather View 32 v60,2013-03-27 17:45:00,
2013-03-27 13:00:00,47.0,28.3,30.30,SE,135,7.0,16.0,48,0.00,,,-99.99,Weather View 32 v60,2013-03-27 18:00:00,
2013-03-27 13:15:00,47.0,27.8,30.29,SSE,157,4.0,16.0,47,0.00,,,-99.99,Weather View 32 v60,2013-03-27 18:15:00,
2013-03-27 13:30:00,49.0,28.5,30.29,SSE,157,6.0,16.0,45,0.00,,,-99.99,Weather View 32 v60,2013-03-27 18:30:00,
2013-03-27 13:45:00,48.0,26.5,30.29,South,180,6.0,17.0,43,0.00,,,-99.99,Weather View 32 v60,2013-03-27 18:45:00,
2013-03-27 14:00:00,48.0,26.0,30.28,East,90,2.0,18.0,42,0.00,,,-99.99,Weather View 32 v60,2013-03-27 19:00:00,
2013-03-27 14:15:00,49.0,26.9,30.27,ESE,112,0.0,18.0,42,0.00,,,-99.99,Weather View 32 v60,2013-03-27 19:15:00,
2013-03-27 14:30:00,50.0,27.2,30.26,SE,135,6.0,18.0,41,0.00,,,-99.99,Weather View 32 v60,2013-03-27 19:30:00,
2013-03-27 14:45:00,49.0,26.9,30.26,SSE,157,6.0,20.0,42,0.00,,,-99.99,Weather View 32 v60,2013-03-27 19:45:00,
2013-03-27 15:00:00,49.0,27.4,30.26,ESE,112,6.0,20.0,43,0.00,,,-99.99,Weather View 32 v60,2013-03-27 20:00:00,
2013-03-27 15:15:00,50.0,27.2,30.25,East,90,2.0,20.0,41,0.00,,,-99.99,Weather View 32 v60,2013-03-27 20:15:00,
2013-03-27 15:30:00,51.0,28.7,30.25,SE,135,6.0,20.0,42,0.00,,,-99.99,Weather View 32 v60,2013-03-27 20:30:00,
2013-03-27 15:45:00,51.0,28.7,30.25,ESE,112,7.0,18.0,42,0.00,,,-99.99,Weather View 32 v60,2013-03-27 20:45:00,
2013-03-27 16:00:00,52.0,29.0,30.24,East,90,0.0,18.0,41,0.00,,,-99.99,Weather View 32 v60,2013-03-27 21:00:00,
2013-03-27 16:15:00,52.0,29.6,30.23,SSW,202,1.0,18.0,42,0.00,,,-99.99,Weather View 32 v60,2013-03-27 21:15:00,
2013-03-27 16:30:00,53.0,29.9,30.23,South,180,0.0,18.0,41,0.00,,,-99.99,Weather View 32 v60,2013-03-27 21:30:00,
2013-03-27 16:45:00,52.0,29.0,30.23,SW,225,3.0,15.0,41,0.00,,,-99.99,Weather View 32 v60,2013-03-27 21:45:00,
2013-03-27 17:00:00,52.0,30.2,30.24,SE,135,0.0,15.0,43,0.00,,,-99.99,Weather View 32 v60,2013-03-27 22:00:00,
2013-03-27 17:15:00,51.0,28.7,30.24,SSE,157,3.0,15.0,42,0.00,,,-99.99,Weather View 32 v60,2013-03-27 22:15:00,
2013-03-27 17:30:00,50.0,28.9,30.24,SE,135,1.0,15.0,44,0.00,,,-99.99,Weather View 32 v60,2013-03-27 22:30:00,
2013-03-27 17:45:00,52.0,29.6,30.23,ESE,112,7.0,11.0,42,0.00,,,-99.99,Weather View 32 v60,2013-03-27 22:45:00,
2013-03-27 18:00:00,51.0,28.7,30.24,SSW,202,1.0,11.0,42,0.00,,,-99.99,Weather View 32 v60,2013-03-27 23:00:00,
2013-03-27 18:15:00,50.0,28.3,30.24,ESE,112,2.0,12.0,43,0.00,,,-99.99,Weather View 32 v60,2013-03-27 23:15:00,
2013-03-27 18:30:00,50.0,29.5,30.24,SSE,157,4.0,14.0,45,0.00,,,-99.99,Weather View 32 v60,2013-03-27 23:30:00,
2013-03-27 18:45:00,49.0,29.6,30.25,East,90,9.0,14.0,47,0.00,,,-99.99,Weather View 32 v60,2013-03-27 23:45:00,
2013-03-27 19:00:00,48.0,30.7,30.26,East,90,9.0,14.0,51,0.00,,,-99.99,Weather View 32 v60,2013-03-28 00:00:00,
2013-03-27 19:15:00,47.0,30.7,30.26,East,90,4.0,14.0,53,0.00,,,-99.99,Weather View 32 v60,2013-03-28 00:15:00,
2013-03-27 19:30:00,46.0,30.7,30.27,ESE,112,3.0,13.0,55,0.00,,,-99.99,Weather View 32 v60,2013-03-28 00:30:00,
2013-03-27 19:45:00,45.0,31.1,30.27,East,90,7.0,13.0,58,0.00,,,-99.99,Weather View 32 v60,2013-03-28 00:45:00,
2013-03-27 20:00:00,44.0,31.0,30.28,East,90,7.0,13.0,60,0.00,,,-99.99,Weather View 32 v60,2013-03-28 01:00:00,
2013-03-27 20:15:00,42.0,29.9,30.28,ENE,67,3.0,13.0,62,0.00,,,-99.99,Weather View 32 v60,2013-03-28 01:15:00,
2013-03-27 20:30:00,41.0,30.1,30.30,East,90,2.0,13.0,65,0.00,,,-99.99,Weather View 32 v60,2013-03-28 01:30:00,
2013-03-27 20:45:00,40.0,30.3,30.30,ESE,112,7.0,13.0,68,0.00,,,-99.99,Weather View 32 v60,2013-03-28 01:45:00,
2013-03-27 21:00:00,39.0,30.4,30.30,East,90,1.0,13.0,71,0.00,,,-99.99,Weather View 32 v60,2013-03-28 02:00:00,
2013-03-27 21:15:00,39.0,31.1,30.31,ENE,67,1.0,13.0,73,0.00,,,-99.99,Weather View 32 v60,2013-03-28 02:15:00,
2013-03-27 21:30:00,39.0,31.4,30.32,ENE,67,1.0,13.0,74,0.00,,,-99.99,Weather View 32 v60,2013-03-28 02:30:00,
2013-03-27 21:35:00,39.0,31.4,30.32,ENE,67,1.0,13.0,74,0.00,,,-99.99,Weather View 32 v60,2013-03-28 02:35:00,
2013-03-27 21:45:00,38.0,30.4,30.32,East,90,4.0,13.0,74,0.00,,,-99.99,Weather View 32 v60,2013-03-28 02:45:00,
2013-03-27 22:00:00,38.0,30.4,30.33,ESE,112,6.0,13.0,74,0.00,,,-99.99,Weather View 32 v60,2013-03-28 03:00:00,
2013-03-27 22:15:00,38.0,30.4,30.33,East,90,0.0,13.0,74,0.00,,,-99.99,Weather View 32 v60,2013-03-28 03:15:00,
2013-03-27 22:30:00,38.0,29.8,30.33,SE,135,0.0,13.0,72,0.00,,,-99.99,Weather View 32 v60,2013-03-28 03:30:00,
2013-03-27 22:36:00,38.0,29.8,30.33,SE,135,0.0,13.0,72,0.00,,,-99.99,Weather View 32 v60,2013-03-28 03:36:00,
2013-03-27 22:45:00,38.0,29.8,30.33,SW,225,0.0,13.0,72,0.00,,,-99.99,Weather View 32 v60,2013-03-28 03:45:00,
2013-03-27 23:00:00,37.0,29.5,30.33,SSE,157,0.0,13.0,74,0.00,,,-99.99,Weather View 32 v60,2013-03-28 04:00:00,
2013-03-27 23:15:00,37.0,29.8,30.33,East,90,1.0,13.0,75,0.00,,,-99.99,Weather View 32 v60,2013-03-28 04:15:00,
2013-03-27 23:30:00,36.0,29.2,30.34,SSE,157,0.0,9.0,76,0.00,,,-99.99,Weather View 32 v60,2013-03-28 04:30:00,
2013-03-27 23:37:00,36.0,29.2,30.34,SSE,157,0.0,9.0,76,0.00,,,-99.99,Weather View 32 v60,2013-03-28 04:37:00,
2013-03-27 23:45:00,36.0,29.2,30.34,NNW,337,0.0,8.0,76,0.00,,,-99.99,Weather View 32 v60,2013-03-28 04:45:00,